Time;durP1;ratioP1;P1;durP2;ratioP2;P2;SDS_P1;SDS_P2;PMS_P1;PMS_P2;Temp;Humidity;BMP_temperature;BMP_pressure;BME280_temperature;BME280_humidity;BME280_pressure;Samples;Min_cycle;Max_cycle;Signal;HPM_P1;HPM_P2
2022/06/25 00:02:06;;;;;;;;;;;17.70;99.90;;;;;;4966537;28;20208;-66
2022/06/25 00:07:20;;;;;;;;;;;17.70;99.90;;;;;;4992864;28;20231;-64
2022/06/25 00:09:48;;;;;;;;;;;17.70;99.90;;;;;;4992639;28;20657;-64
2022/06/25 00:12:34;;;;;;;;;;;17.70;99.90;;;;;;4989555;28;20204;-64
2022/06/25 00:15:03;;;;;;;;;;;17.70;99.90;;;;;;4973876;28;20276;-64
2022/06/25 00:17:31;;;;;;;;;;;17.70;99.90;;;;;;4991439;28;20206;-64
2022/06/25 00:19:59;;;;;;;;;;;17.80;99.90;;;;;;4973828;28;20721;-63
2022/06/25 00:22:29;;;;;;;;;;;17.70;99.90;;;;;;4991862;28;20199;-64
2022/06/25 00:24:57;;;;;;;;;;;17.70;99.90;;;;;;4966962;28;20637;-64
2022/06/25 00:27:24;;;;;;;;;;;17.70;99.90;;;;;;4967287;28;20208;-65
2022/06/25 00:29:52;;;;;;;;;;;17.70;99.90;;;;;;4983068;28;20224;-65
2022/06/25 00:32:20;;;;;;;;;;;17.60;99.90;;;;;;4973143;28;20196;-64
2022/06/25 00:34:48;;;;;;;;;;;17.50;99.90;;;;;;4973269;28;20827;-65
2022/06/25 00:37:16;;;;;;;;;;;17.60;99.90;;;;;;4973427;28;20208;-64
2022/06/25 00:39:45;;;;;;;;;;;17.60;99.90;;;;;;4973533;28;20287;-64
2022/06/25 00:42:14;;;;;;;;;;;17.50;99.90;;;;;;4991547;28;20684;-64
2022/06/25 00:44:42;;;;;;;;;;;17.60;99.90;;;;;;4992076;28;20203;-64
2022/06/25 00:47:11;;;;;;;;;;;17.50;99.90;;;;;;4992106;28;20203;-64
2022/06/25 00:49:38;;;;;;;;;;;17.60;99.90;;;;;;4966891;28;20235;-64
2022/06/25 00:52:08;;;;;;;;;;;17.60;99.90;;;;;;4985509;28;20262;-64
2022/06/25 00:54:37;;;;;;;;;;;17.60;99.90;;;;;;4966575;28;20228;-64
2022/06/25 00:57:07;;;;;;;;;;;17.50;99.90;;;;;;4967040;28;20243;-63
2022/06/25 00:59:37;;;;;;;;;;;17.50;99.90;;;;;;4973377;28;20212;-64
2022/06/25 01:02:05;;;;;;;;;;;17.40;99.90;;;;;;4961648;28;20223;-64
2022/06/25 01:04:33;;;;;;;;;;;17.40;99.90;;;;;;4973081;28;20244;-63
2022/06/25 01:07:01;;;;;;;;;;;17.40;99.90;;;;;;4973030;28;20311;-64
2022/06/25 01:09:29;;;;;;;;;;;17.20;99.90;;;;;;4973260;28;20673;-64
2022/06/25 01:11:56;;;;;;;;;;;17.20;99.90;;;;;;4972886;28;20208;-64
2022/06/25 01:14:26;;;;;;;;;;;17.20;99.90;;;;;;4985457;28;20199;-64
2022/06/25 01:16:53;;;;;;;;;;;17.20;99.90;;;;;;4991456;28;20243;-64
2022/06/25 01:19:21;;;;;;;;;;;17.10;99.90;;;;;;4991644;28;20208;-64
2022/06/25 01:21:49;;;;;;;;;;;17.00;99.90;;;;;;4991672;28;20232;-63
2022/06/25 01:24:18;;;;;;;;;;;17.00;99.90;;;;;;4986890;28;20251;-64
2022/06/25 01:26:46;;;;;;;;;;;16.90;99.90;;;;;;4991486;28;20227;-65
2022/06/25 01:29:13;;;;;;;;;;;17.00;99.90;;;;;;4980582;28;20192;-64
2022/06/25 01:31:45;;;;;;;;;;;17.10;99.90;;;;;;4969796;28;20278;-67
2022/06/25 01:34:13;;;;;;;;;;;17.20;99.90;;;;;;4974724;28;20200;-66
2022/06/25 01:36:41;;;;;;;;;;;17.20;99.90;;;;;;4972582;28;20247;-65
2022/06/25 01:39:08;;;;;;;;;;;17.30;99.90;;;;;;4972897;28;20609;-65
2022/06/25 01:41:37;;;;;;;;;;;17.30;99.90;;;;;;4972747;28;20271;-66
2022/06/25 01:44:05;;;;;;;;;;;17.40;99.90;;;;;;4972070;28;20629;-66
2022/06/25 01:46:33;;;;;;;;;;;17.50;99.90;;;;;;4972436;28;20188;-65
2022/06/25 01:49:01;;;;;;;;;;;17.60;99.90;;;;;;4972967;28;20267;-65
2022/06/25 01:51:29;;;;;;;;;;;17.60;99.90;;;;;;4972894;28;20196;-66
2022/06/25 01:53:56;;;;;;;;;;;17.60;99.90;;;;;;4971993;28;20630;-65
2022/06/25 01:56:24;;;;;;;;;;;17.70;99.90;;;;;;4972856;28;20559;-66
2022/06/25 01:58:53;;;;;;;;;;;17.70;99.90;;;;;;4972513;28;20724;-66
2022/06/25 02:01:21;;;;;;;;;;;17.70;99.90;;;;;;4977136;28;20238;-64
2022/06/25 02:03:49;;;;;;;;;;;17.70;99.90;;;;;;4978380;28;20200;-64
2022/06/25 02:06:17;;;;;;;;;;;17.70;99.90;;;;;;4991257;28;20319;-65
2022/06/25 02:08:44;;;;;;;;;;;17.70;99.90;;;;;;4991077;28;20649;-63
2022/06/25 02:11:12;;;;;;;;;;;17.70;99.90;;;;;;4991289;28;20204;-64
2022/06/25 02:13:40;;;;;;;;;;;17.70;99.90;;;;;;4978062;28;20692;-64
2022/06/25 02:16:09;;;;;;;;;;;17.70;99.90;;;;;;4975777;28;20292;-64
2022/06/25 02:18:37;;;;;;;;;;;17.60;99.90;;;;;;4975922;28;20286;-64
2022/06/25 02:21:05;;;;;;;;;;;17.60;99.90;;;;;;4976107;28;20200;-65
2022/06/25 02:23:32;;;;;;;;;;;17.60;99.90;;;;;;4975381;28;20211;-64
2022/06/25 02:26:00;;;;;;;;;;;17.60;99.90;;;;;;4975781;28;20948;-64
2022/06/25 02:28:28;;;;;;;;;;;17.50;99.90;;;;;;4975911;28;20211;-64
2022/06/25 02:30:56;;;;;;;;;;;17.40;99.90;;;;;;4970631;28;20718;-64
2022/06/25 02:33:25;;;;;;;;;;;17.40;99.90;;;;;;4983885;28;20638;-63
2022/06/25 02:35:52;;;;;;;;;;;17.30;99.90;;;;;;4994386;28;20227;-63
2022/06/25 02:38:20;;;;;;;;;;;17.30;99.90;;;;;;4994414;28;20203;-63
2022/06/25 02:40:48;;;;;;;;;;;17.20;99.90;;;;;;4994528;28;20234;-64
2022/06/25 02:43:16;;;;;;;;;;;17.30;99.90;;;;;;4993782;28;20667;-63
2022/06/25 02:45:43;;;;;;;;;;;17.20;99.90;;;;;;4994075;28;20199;-63
2022/06/25 02:48:11;;;;;;;;;;;17.10;99.90;;;;;;4982974;28;20658;-64
2022/06/25 02:50:40;;;;;;;;;;;17.00;99.90;;;;;;4975443;28;20204;-63
2022/06/25 02:53:08;;;;;;;;;;;17.20;99.90;;;;;;4974736;28;20212;-63
2022/06/25 03:01:03;;;;;;;;;;;17.10;99.90;;;;;;4964773;28;20239;-63
2022/06/25 03:03:31;;;;;;;;;;;17.10;99.90;;;;;;4976864;28;20192;-64
2022/06/25 03:06:00;;;;;;;;;;;17.10;99.90;;;;;;4992216;28;20257;-64
2022/06/25 03:08:28;;;;;;;;;;;17.00;99.90;;;;;;4990324;28;20199;-64
2022/06/25 03:10:55;;;;;;;;;;;16.90;99.90;;;;;;4993559;28;20621;-64
2022/06/25 03:13:23;;;;;;;;;;;17.10;99.90;;;;;;4982252;28;20208;-63
2022/06/25 03:15:51;;;;;;;;;;;17.00;99.90;;;;;;4975073;28;20208;-63
2022/06/25 03:18:19;;;;;;;;;;;17.10;99.90;;;;;;4974809;28;20200;-63
2022/06/25 03:20:46;;;;;;;;;;;17.30;99.90;;;;;;4974829;28;20724;-63
2022/06/25 03:23:15;;;;;;;;;;;17.30;99.90;;;;;;4974179;28;20231;-64
2022/06/25 03:25:43;;;;;;;;;;;17.20;99.90;;;;;;4974408;28;20204;-64
2022/06/25 03:28:11;;;;;;;;;;;17.10;99.90;;;;;;4974856;28;20211;-64
2022/06/25 03:30:39;;;;;;;;;;;17.20;99.90;;;;;;4969640;28;20641;-64
2022/06/25 03:33:07;;;;;;;;;;;17.10;99.90;;;;;;4962608;28;20259;-64
2022/06/25 03:35:34;;;;;;;;;;;17.00;99.90;;;;;;4982830;28;20257;-63
2022/06/25 03:38:02;;;;;;;;;;;17.10;99.90;;;;;;4993296;28;20196;-64
2022/06/25 03:40:31;;;;;;;;;;;17.20;99.90;;;;;;4975461;28;20666;-63
2022/06/25 03:42:59;;;;;;;;;;;17.20;99.90;;;;;;4973944;28;20207;-63
2022/06/25 03:45:27;;;;;;;;;;;17.30;99.90;;;;;;4974425;28;20235;-63
2022/06/25 03:47:54;;;;;;;;;;;17.40;99.90;;;;;;4974322;28;20196;-63
2022/06/25 03:50:22;;;;;;;;;;;17.40;99.90;;;;;;4974595;28;20204;-63
2022/06/25 03:52:51;;;;;;;;;;;17.50;99.90;;;;;;4969267;28;20251;-63
2022/06/25 03:55:19;;;;;;;;;;;17.60;99.90;;;;;;4974467;28;20204;-63
2022/06/25 03:58:04;;;;;;;;;;;17.50;99.90;;;;;;4974026;28;20259;-65
2022/06/25 04:00:32;;;;;;;;;;;17.50;99.90;;;;;;4974424;28;20242;-63
2022/06/25 04:02:59;;;;;;;;;;;17.60;99.90;;;;;;4981746;28;20238;-64
2022/06/25 04:05:27;;;;;;;;;;;17.70;99.90;;;;;;4992803;28;20278;-63
2022/06/25 04:07:55;;;;;;;;;;;17.70;99.90;;;;;;4992606;28;20294;-64
2022/06/25 04:10:23;;;;;;;;;;;17.70;99.90;;;;;;4992437;28;20191;-64
2022/06/25 04:12:55;;;;;;;;;;;17.70;99.90;;;;;;4984713;28;20208;-64
2022/06/25 04:15:24;;;;;;;;;;;17.80;99.90;;;;;;4973771;28;20235;-63
2022/06/25 04:17:52;;;;;;;;;;;17.80;99.90;;;;;;4973523;28;20564;-63
2022/06/25 04:20:20;;;;;;;;;;;17.80;99.90;;;;;;4973910;28;20204;-64
2022/06/25 04:22:48;;;;;;;;;;;17.80;99.90;;;;;;4973145;28;20720;-64
2022/06/25 04:25:16;;;;;;;;;;;17.80;99.90;;;;;;4973685;28;20259;-64
2022/06/25 04:30:30;;;;;;;;;;;17.70;99.90;;;;;;4959983;28;20210;-65
2022/06/25 04:32:57;;;;;;;;;;;17.70;99.90;;;;;;4945374;28;20311;-64
2022/06/25 04:35:25;;;;;;;;;;;17.70;99.90;;;;;;4942285;28;20208;-65
2022/06/25 04:37:53;;;;;;;;;;;17.80;99.90;;;;;;4946623;28;20255;-65
2022/06/25 04:40:21;;;;;;;;;;;17.80;99.90;;;;;;4941550;28;20278;-65
2022/06/25 04:42:48;;;;;;;;;;;17.70;99.90;;;;;;4943266;28;20205;-65
2022/06/25 04:45:16;;;;;;;;;;;17.70;99.90;;;;;;4945211;28;20259;-65
2022/06/25 04:47:45;;;;;;;;;;;17.70;99.90;;;;;;4942452;28;20292;-64
2022/06/25 04:50:13;;;;;;;;;;;17.70;99.90;;;;;;4946247;28;20280;-65
2022/06/25 04:52:41;;;;;;;;;;;17.70;99.90;;;;;;4943995;28;20267;-65
2022/06/25 04:55:09;;;;;;;;;;;17.70;99.90;;;;;;4950851;28;20287;-65
2022/06/25 04:57:37;;;;;;;;;;;17.80;99.90;;;;;;4944365;28;20204;-65
2022/06/25 05:00:05;;;;;;;;;;;17.80;99.90;;;;;;4947072;28;20295;-66
2022/06/25 05:02:33;;;;;;;;;;;17.80;99.90;;;;;;4944137;28;20350;-64
2022/06/25 05:05:02;;;;;;;;;;;17.80;99.90;;;;;;4948465;28;20212;-64
2022/06/25 05:07:29;;;;;;;;;;;17.80;99.90;;;;;;4943670;28;20196;-64
2022/06/25 05:09:58;;;;;;;;;;;17.80;99.90;;;;;;4949621;28;20214;-65
2022/06/25 05:15:11;;;;;;;;;;;17.70;99.90;;;;;;4945213;28;20254;-65
2022/06/25 05:17:39;;;;;;;;;;;17.80;99.90;;;;;;4952486;28;20294;-64
2022/06/25 05:20:10;;;;;;;;;;;17.90;99.90;;;;;;4961844;28;20235;-64
2022/06/25 05:22:37;;;;;;;;;;;17.70;99.90;;;;;;4964302;28;20307;-65
2022/06/25 05:25:06;;;;;;;;;;;17.80;99.90;;;;;;4963478;28;20196;-64
2022/06/25 05:27:34;;;;;;;;;;;17.90;99.90;;;;;;4967838;28;20306;-65
2022/06/25 05:30:02;;;;;;;;;;;17.90;99.90;;;;;;4964905;28;20270;-65
2022/06/25 05:32:30;;;;;;;;;;;18.00;99.90;;;;;;4960908;28;20222;-66
2022/06/25 05:34:57;;;;;;;;;;;18.00;99.90;;;;;;4961627;28;20254;-64
2022/06/25 05:37:27;;;;;;;;;;;17.90;99.90;;;;;;4966694;28;20223;-65
2022/06/25 05:39:54;;;;;;;;;;;18.10;99.90;;;;;;4967959;28;21290;-64
2022/06/25 05:42:22;;;;;;;;;;;18.10;99.90;;;;;;4964253;28;20307;-66
2022/06/25 05:44:50;;;;;;;;;;;18.20;99.90;;;;;;4963445;28;20287;-67
2022/06/25 05:47:17;;;;;;;;;;;18.20;99.90;;;;;;4966742;28;20210;-66
2022/06/25 05:49:45;;;;;;;;;;;18.30;99.90;;;;;;4965201;28;20258;-67
2022/06/25 05:52:13;;;;;;;;;;;18.30;99.90;;;;;;4966512;28;20198;-68
2022/06/25 05:54:42;;;;;;;;;;;18.20;99.90;;;;;;4967346;28;20294;-67
2022/06/25 05:57:10;;;;;;;;;;;18.20;99.90;;;;;;4969929;28;20207;-68
2022/06/25 05:59:37;;;;;;;;;;;18.20;99.90;;;;;;4972235;28;21302;-66
2022/06/25 06:02:05;;;;;;;;;;;18.20;99.90;;;;;;4965672;28;20208;-67
2022/06/25 06:04:33;;;;;;;;;;;18.00;99.90;;;;;;4970248;28;20779;-66
2022/06/25 06:07:02;;;;;;;;;;;18.10;99.90;;;;;;4966324;28;20294;-66
2022/06/25 06:09:31;;;;;;;;;;;18.10;99.90;;;;;;4968065;28;20299;-67
2022/06/25 06:12:01;;;;;;;;;;;18.10;99.90;;;;;;4962552;28;21030;-68
2022/06/25 06:14:29;;;;;;;;;;;18.20;99.90;;;;;;4972366;28;20231;-67
2022/06/25 06:16:57;;;;;;;;;;;18.30;99.90;;;;;;4968311;28;20215;-66
2022/06/25 06:19:24;;;;;;;;;;;18.40;99.90;;;;;;4959510;28;20216;-66
2022/06/25 06:21:52;;;;;;;;;;;18.50;99.90;;;;;;4955609;28;20306;-67
2022/06/25 06:24:20;;;;;;;;;;;18.60;99.90;;;;;;4956477;28;20278;-67
2022/06/25 06:26:48;;;;;;;;;;;18.80;99.90;;;;;;4958137;28;20282;-66
2022/06/25 06:29:17;;;;;;;;;;;18.90;99.90;;;;;;4958387;28;20279;-66
2022/06/25 06:31:45;;;;;;;;;;;19.00;99.90;;;;;;4955104;28;20263;-67
2022/06/25 06:34:13;;;;;;;;;;;19.00;99.90;;;;;;4956540;28;20250;-67
2022/06/25 06:36:41;;;;;;;;;;;19.10;99.90;;;;;;4959070;28;20200;-67
2022/06/25 06:39:09;;;;;;;;;;;19.10;99.90;;;;;;4959031;28;20634;-66
2022/06/25 06:41:37;;;;;;;;;;;19.20;99.90;;;;;;4953133;28;20441;-66
2022/06/25 06:44:05;;;;;;;;;;;19.20;99.90;;;;;;4958645;28;20230;-65
2022/06/25 06:46:41;;;;;;;;;;;19.30;99.90;;;;;;4959114;28;20203;-66
2022/06/25 06:49:09;;;;;;;;;;;19.40;99.90;;;;;;4958228;28;20300;-64
2022/06/25 06:51:37;;;;;;;;;;;19.30;99.90;;;;;;4956046;28;20656;-64
2022/06/25 06:54:05;;;;;;;;;;;19.40;99.90;;;;;;4958149;28;20231;-64
2022/06/25 06:56:32;;;;;;;;;;;19.50;99.90;;;;;;4959137;28;20231;-64
2022/06/25 06:59:00;;;;;;;;;;;19.70;99.90;;;;;;4953371;28;20200;-65
2022/06/25 07:01:28;;;;;;;;;;;19.60;99.90;;;;;;4953217;28;20298;-64
2022/06/25 07:03:57;;;;;;;;;;;19.70;99.90;;;;;;4923414;28;20216;-64
2022/06/25 07:06:25;;;;;;;;;;;19.70;99.90;;;;;;4958651;28;20204;-64
2022/06/25 07:08:53;;;;;;;;;;;19.70;99.90;;;;;;4958709;28;20214;-64
2022/06/25 07:11:30;;;;;;;;;;;19.70;99.90;;;;;;4968287;28;20278;-64
2022/06/25 07:13:59;;;;;;;;;;;19.60;99.90;;;;;;4970631;28;20235;-64
2022/06/25 07:16:27;;;;;;;;;;;19.70;99.90;;;;;;4968624;28;20212;-64
2022/06/25 07:18:55;;;;;;;;;;;19.80;99.90;;;;;;4974091;28;20240;-65
2022/06/25 07:21:25;;;;;;;;;;;19.80;99.90;;;;;;4973711;28;20255;-65
2022/06/25 07:23:53;;;;;;;;;;;19.90;99.90;;;;;;4992141;28;20207;-65
2022/06/25 07:26:21;;;;;;;;;;;19.90;99.90;;;;;;4992655;28;20196;-65
2022/06/25 07:28:49;;;;;;;;;;;20.00;99.90;;;;;;4992513;28;20641;-65
2022/06/25 07:31:17;;;;;;;;;;;20.10;99.90;;;;;;4978244;28;20204;-65
2022/06/25 07:33:44;;;;;;;;;;;20.10;99.90;;;;;;4971217;28;20488;-65
2022/06/25 07:36:12;;;;;;;;;;;20.10;99.90;;;;;;4973387;28;20204;-65
2022/06/25 07:38:41;;;;;;;;;;;20.20;99.90;;;;;;4990677;28;20231;-65
2022/06/25 07:41:09;;;;;;;;;;;20.20;99.90;;;;;;4992113;28;20705;-65
2022/06/25 07:43:37;;;;;;;;;;;20.20;99.90;;;;;;4991706;28;20620;-65
2022/06/25 07:46:05;;;;;;;;;;;20.30;99.90;;;;;;4992654;28;20235;-65
2022/06/25 07:48:32;;;;;;;;;;;20.30;99.90;;;;;;4992457;28;20634;-65
2022/06/25 07:53:47;;;;;;;;;;;20.40;99.90;;;;;;4991424;28;20684;-65
2022/06/25 07:56:15;;;;;;;;;;;20.40;99.90;;;;;;4992464;28;20621;-65
2022/06/25 07:58:43;;;;;;;;;;;20.50;99.90;;;;;;4992461;28;20195;-65
2022/06/25 08:01:11;;;;;;;;;;;20.70;99.90;;;;;;4987974;28;20215;-65
2022/06/25 08:03:39;;;;;;;;;;;20.70;99.90;;;;;;4975324;28;20668;-65
2022/06/25 08:06:07;;;;;;;;;;;20.90;99.90;;;;;;4981372;28;20203;-65
2022/06/25 08:08:34;;;;;;;;;;;21.10;99.90;;;;;;4991848;28;20255;-65
2022/06/25 08:11:04;;;;;;;;;;;21.30;99.90;;;;;;4991828;28;20657;-65
2022/06/25 08:13:33;;;;;;;;;;;21.40;99.90;;;;;;4990963;28;20233;-65
2022/06/25 08:16:01;;;;;;;;;;;21.50;99.90;;;;;;4991746;28;20231;-65
2022/06/25 08:18:28;;;;;;;;;;;21.30;99.90;;;;;;4991702;28;20474;-65
2022/06/25 08:20:56;;;;;;;;;;;21.30;99.90;;;;;;4991488;28;20264;-65
2022/06/25 08:23:24;;;;;;;;;;;21.10;99.90;;;;;;4991156;28;20200;-65
2022/06/25 08:25:52;;;;;;;;;;;21.10;99.90;;;;;;4991871;28;20250;-65
2022/06/25 08:28:22;;;;;;;;;;;21.20;99.90;;;;;;4992161;28;20294;-65
2022/06/25 08:30:50;;;;;;;;;;;21.40;99.90;;;;;;4990206;28;20223;-65
2022/06/25 08:33:18;;;;;;;;;;;21.40;99.90;;;;;;4964248;28;20204;-65
2022/06/25 08:35:45;;;;;;;;;;;21.40;99.90;;;;;;4984654;28;20254;-65
2022/06/25 08:38:13;;;;;;;;;;;21.50;99.90;;;;;;4991734;28;20191;-65
2022/06/25 08:40:41;;;;;;;;;;;21.60;99.90;;;;;;4991295;28;20200;-65
2022/06/25 08:43:11;;;;;;;;;;;21.70;99.90;;;;;;4990893;28;20673;-65
2022/06/25 08:45:40;;;;;;;;;;;22.10;99.90;;;;;;4991375;28;20287;-65
2022/06/25 08:48:10;;;;;;;;;;;22.30;99.90;;;;;;4991290;28;20258;-65
2022/06/25 08:50:39;;;;;;;;;;;22.60;99.90;;;;;;4991485;28;20622;-65
2022/06/25 08:53:08;;;;;;;;;;;22.60;99.90;;;;;;4990680;28;20567;-65
2022/06/25 08:55:38;;;;;;;;;;;22.70;99.90;;;;;;4991662;28;20231;-65
2022/06/25 08:58:06;;;;;;;;;;;22.70;99.90;;;;;;4991340;28;20652;-65
2022/06/25 09:00:35;;;;;;;;;;;22.80;99.90;;;;;;4991120;28;20282;-65
2022/06/25 09:03:04;;;;;;;;;;;22.70;99.90;;;;;;4972090;28;20204;-65
2022/06/25 09:05:32;;;;;;;;;;;22.70;99.90;;;;;;4986612;28;20227;-65
2022/06/25 09:08:01;;;;;;;;;;;22.60;99.90;;;;;;4991149;28;20620;-65
2022/06/25 09:10:29;;;;;;;;;;;22.80;99.90;;;;;;4990927;28;20720;-65
2022/06/25 09:12:58;;;;;;;;;;;23.20;99.90;;;;;;4990043;28;20258;-65
2022/06/25 09:15:27;;;;;;;;;;;23.50;99.90;;;;;;4991404;28;20250;-65
2022/06/25 09:17:55;;;;;;;;;;;23.70;99.90;;;;;;4990771;28;20239;-65
2022/06/25 09:20:30;;;;;;;;;;;24.00;99.90;;;;;;4991033;28;20208;-65
2022/06/25 09:22:59;;;;;;;;;;;23.90;99.90;;;;;;4990504;28;20635;-65
2022/06/25 09:25:27;;;;;;;;;;;23.50;99.90;;;;;;4997142;28;20758;-65
2022/06/25 09:27:56;;;;;;;;;;;23.40;99.90;;;;;;4997845;28;20281;-65
2022/06/25 09:30:25;;;;;;;;;;;23.50;99.90;;;;;;4997306;28;20242;-65
2022/06/25 09:32:55;;;;;;;;;;;23.90;99.90;;;;;;4984667;28;20211;-65
2022/06/25 09:35:31;;;;;;;;;;;24.40;99.90;;;;;;4981815;28;20650;-65
2022/06/25 09:38:03;;;;;;;;;;;24.80;99.90;;;;;;4977355;28;20347;-67
2022/06/25 09:40:31;;;;;;;;;;;25.20;99.90;;;;;;4971072;28;20199;-65
2022/06/25 09:42:59;;;;;;;;;;;25.50;99.90;;;;;;4973130;28;20765;-65
2022/06/25 09:45:27;;;;;;;;;;;25.80;99.90;;;;;;4975980;28;20281;-65
2022/06/25 09:47:56;;;;;;;;;;;26.10;99.90;;;;;;4970170;28;20649;-65
2022/06/25 09:50:24;;;;;;;;;;;26.10;99.90;;;;;;4975294;28;20254;-64
2022/06/25 09:52:55;;;;;;;;;;;26.40;99.90;;;;;;4976192;28;20752;-65
2022/06/25 09:55:24;;;;;;;;;;;26.30;99.90;;;;;;4974521;28;20207;-64
2022/06/25 09:57:53;;;;;;;;;;;26.60;99.90;;;;;;4972544;28;20196;-65
2022/06/25 10:00:21;;;;;;;;;;;26.70;99.90;;;;;;4995410;28;20691;-65
2022/06/25 10:02:51;;;;;;;;;;;27.10;99.90;;;;;;4977957;28;20200;-65
2022/06/25 10:05:19;;;;;;;;;;;27.20;99.90;;;;;;4989272;28;20262;-65
2022/06/25 10:08:07;;;;;;;;;;;27.10;99.90;;;;;;4997363;28;20258;-65
2022/06/25 10:10:38;;;;;;;;;;;27.30;99.90;;;;;;4996842;28;20199;-65
2022/06/25 10:13:06;;;;;;;;;;;26.90;99.90;;;;;;4996298;28;20227;-65
2022/06/25 10:15:34;;;;;;;;;;;26.80;99.90;;;;;;4996999;28;20250;-65
2022/06/25 10:18:03;;;;;;;;;;;26.40;99.90;;;;;;4996895;28;20231;-65
2022/06/25 10:20:31;;;;;;;;;;;26.40;99.90;;;;;;4996851;28;20230;-65
2022/06/25 10:23:00;;;;;;;;;;;26.40;99.90;;;;;;4995977;28;20204;-65
2022/06/25 10:25:31;;;;;;;;;;;26.60;99.90;;;;;;4997036;28;20204;-65
2022/06/25 10:28:08;;;;;;;;;;;26.90;99.90;;;;;;4997247;28;20295;-65
2022/06/25 10:30:47;;;;;;;;;;;27.00;99.90;;;;;;5047713;23;20268;-65
2022/06/25 10:33:16;;;;;;;;;;;27.00;99.90;;;;;;5037127;28;20200;-66
2022/06/25 10:35:45;;;;;;;;;;;27.00;99.90;;;;;;5041468;28;20237;-66
2022/06/25 10:38:14;;;;;;;;;;;27.10;99.90;;;;;;5053224;28;20194;-66
2022/06/25 10:40:53;;;;;;;;;;;27.10;99.90;;;;;;5052795;28;20222;-66
2022/06/25 10:43:40;;;;;;;;;;;27.20;99.90;;;;;;5052161;28;20244;-66
2022/06/25 10:46:21;;;;;;;;;;;27.50;99.90;;;;;;5052828;28;20667;-66
2022/06/25 10:48:55;;;;;;;;;;;27.80;99.90;;;;;;5052901;28;20236;-66
2022/06/25 10:51:30;;;;;;;;;;;28.00;99.90;;;;;;5052484;28;20249;-66
2022/06/25 10:53:59;;;;;;;;;;;28.10;99.90;;;;;;5026223;28;20234;-66
2022/06/25 10:56:26;;;;;;;;;;;28.20;99.90;;;;;;5027232;28;20289;-66
2022/06/25 10:58:56;;;;;;;;;;;28.40;99.90;;;;;;5033761;28;20286;-66
2022/06/25 11:01:26;;;;;;;;;;;28.20;99.90;;;;;;5026865;28;20227;-66
2022/06/25 11:03:55;;;;;;;;;;;28.60;99.90;;;;;;5039199;28;20626;-66
2022/06/25 11:06:24;;;;;;;;;;;28.80;99.90;;;;;;5052566;28;20234;-66
2022/06/25 11:08:52;;;;;;;;;;;29.10;99.90;;;;;;5052546;28;20729;-66
2022/06/25 11:11:24;;;;;;;;;;;29.00;99.90;;;;;;5052196;28;20195;-66
2022/06/25 11:13:52;;;;;;;;;;;29.00;99.90;;;;;;5051718;28;20724;-66
2022/06/25 11:16:21;;;;;;;;;;;29.30;99.90;;;;;;5052223;28;20569;-66
2022/06/25 11:18:49;;;;;;;;;;;29.80;99.90;;;;;;5052764;28;20202;-66
2022/06/25 11:21:31;;;;;;;;;;;30.10;99.90;;;;;;5051876;28;20195;-66
2022/06/25 11:24:10;;;;;;;;;;;29.90;99.50;;;;;;5051409;28;20248;-66
2022/06/25 11:29:25;;;;;;;;;;;29.60;99.90;;;;;;5052026;28;20199;-65
2022/06/25 11:31:55;;;;;;;;;;;29.40;99.70;;;;;;5041922;28;20191;-65
2022/06/25 11:34:24;;;;;;;;;;;29.50;99.40;;;;;;5045098;28;20195;-66
2022/06/25 11:36:56;;;;;;;;;;;29.90;99.30;;;;;;5051997;28;20622;-66
2022/06/25 11:39:24;;;;;;;;;;;29.80;99.20;;;;;;5051894;28;20711;-66
2022/06/25 11:41:51;;;;;;;;;;;29.60;99.00;;;;;;5051580;28;20687;-66
2022/06/25 11:44:19;;;;;;;;;;;30.00;98.30;;;;;;5050912;28;20202;-66
2022/06/25 11:46:48;;;;;;;;;;;30.40;98.40;;;;;;5042327;28;20649;-65
2022/06/25 11:49:20;;;;;;;;;;;30.70;97.50;;;;;;5018660;28;20710;-65
2022/06/25 11:51:48;;;;;;;;;;;30.70;97.80;;;;;;5022468;28;20211;-65
2022/06/25 11:54:16;;;;;;;;;;;30.90;97.00;;;;;;5020225;28;21062;-65
2022/06/25 11:56:48;;;;;;;;;;;31.10;97.40;;;;;;5023133;28;20305;-65
2022/06/25 11:59:23;;;;;;;;;;;31.10;96.70;;;;;;5026150;28;20207;-65
2022/06/25 12:01:51;;;;;;;;;;;31.10;96.90;;;;;;5023822;28;20202;-65
2022/06/25 12:04:20;;;;;;;;;;;31.00;96.60;;;;;;5024361;28;20285;-65
2022/06/25 12:06:49;;;;;;;;;;;31.40;97.70;;;;;;5026432;28;20202;-65
2022/06/25 12:09:17;;;;;;;;;;;31.90;97.10;;;;;;5020935;28;21049;-65
2022/06/25 12:11:52;;;;;;;;;;;32.30;96.00;;;;;;5024591;28;20715;-65
2022/06/25 12:14:21;;;;;;;;;;;32.40;94.70;;;;;;5022010;28;20743;-65
2022/06/25 12:16:48;;;;;;;;;;;32.80;94.40;;;;;;5027600;28;20841;-65
2022/06/25 12:19:16;;;;;;;;;;;32.50;95.40;;;;;;5024977;28;20209;-65
2022/06/25 12:21:45;;;;;;;;;;;31.70;93.30;;;;;;5022446;28;20207;-65
2022/06/25 12:24:13;;;;;;;;;;;30.60;94.50;;;;;;5021475;28;21553;-65
2022/06/25 12:26:43;;;;;;;;;;;30.10;95.80;;;;;;5023863;28;20247;-65
2022/06/25 12:29:18;;;;;;;;;;;30.00;95.90;;;;;;5022515;28;20245;-65
2022/06/25 12:31:52;;;;;;;;;;;30.50;95.40;;;;;;5021107;28;20755;-65
2022/06/25 12:34:19;;;;;;;;;;;31.00;94.30;;;;;;5026026;28;20510;-65
2022/06/25 12:36:49;;;;;;;;;;;31.30;94.70;;;;;;5026625;28;20836;-65
2022/06/25 12:39:34;;;;;;;;;;;31.30;94.20;;;;;;5019554;28;20303;-64
2022/06/25 12:42:03;;;;;;;;;;;31.70;94.40;;;;;;5020074;28;20226;-65
2022/06/25 12:44:31;;;;;;;;;;;32.40;94.10;;;;;;5023204;28;20313;-65
2022/06/25 12:47:00;;;;;;;;;;;33.00;92.80;;;;;;5022923;28;20276;-65
2022/06/25 12:49:39;;;;;;;;;;;33.00;92.90;;;;;;5023355;28;20325;-65
2022/06/25 12:52:08;;;;;;;;;;;32.10;92.90;;;;;;5020254;28;20286;-65
2022/06/25 12:54:44;;;;;;;;;;;31.10;93.10;;;;;;5027280;28;20264;-65
2022/06/25 12:57:18;;;;;;;;;;;30.90;94.40;;;;;;5021234;28;20285;-65
2022/06/25 12:59:46;;;;;;;;;;;30.80;94.50;;;;;;5019797;28;20226;-65
2022/06/25 13:02:14;;;;;;;;;;;31.40;94.60;;;;;;5020924;28;20582;-65
2022/06/25 13:04:42;;;;;;;;;;;31.20;93.50;;;;;;5022306;28;20142;-66
2022/06/25 13:07:12;;;;;;;;;;;30.40;93.70;;;;;;5018847;28;20206;-65
2022/06/25 13:09:40;;;;;;;;;;;30.00;94.40;;;;;;5019618;28;20281;-65
2022/06/25 13:12:24;;;;;;;;;;;30.00;94.50;;;;;;5023163;28;20223;-65
2022/06/25 13:14:52;;;;;;;;;;;30.10;94.40;;;;;;5017660;28;20298;-65
2022/06/25 13:17:19;;;;;;;;;;;30.50;94.20;;;;;;5022694;28;20992;-65
2022/06/25 13:19:47;;;;;;;;;;;30.90;93.00;;;;;;5020378;28;20211;-65
2022/06/25 13:22:16;;;;;;;;;;;31.30;92.60;;;;;;5025861;28;20260;-65
2022/06/25 13:24:45;;;;;;;;;;;31.90;93.80;;;;;;5021485;28;21070;-65
2022/06/25 13:27:13;;;;;;;;;;;32.30;92.90;;;;;;5023809;28;20209;-65
2022/06/25 13:29:42;;;;;;;;;;;32.60;91.60;;;;;;5024865;28;20212;-65
2022/06/25 13:32:09;;;;;;;;;;;32.30;91.70;;;;;;5014447;28;20198;-65
2022/06/25 13:34:37;;;;;;;;;;;31.70;91.80;;;;;;5018030;28;20260;-65
2022/06/25 13:37:05;;;;;;;;;;;31.00;92.20;;;;;;5021049;28;20293;-65
2022/06/25 13:39:34;;;;;;;;;;;30.20;92.40;;;;;;5017717;28;20314;-65
2022/06/25 13:42:02;;;;;;;;;;;29.80;92.50;;;;;;5024860;28;20210;-65
2022/06/25 13:44:30;;;;;;;;;;;29.80;93.40;;;;;;5024749;28;20212;-65
2022/06/25 13:46:58;;;;;;;;;;;30.00;93.70;;;;;;5022917;28;20217;-65
2022/06/25 13:49:26;;;;;;;;;;;29.90;93.10;;;;;;5021804;28;20313;-65
2022/06/25 13:51:54;;;;;;;;;;;30.20;93.70;;;;;;5021590;28;20210;-65
2022/06/25 13:54:21;;;;;;;;;;;31.00;92.70;;;;;;5023046;28;20329;-66
2022/06/25 13:56:50;;;;;;;;;;;31.60;93.20;;;;;;5022346;28;20667;-65
2022/06/25 13:59:18;;;;;;;;;;;32.10;92.20;;;;;;5021305;28;21674;-64
2022/06/25 14:01:46;;;;;;;;;;;31.40;91.60;;;;;;5019942;28;20285;-64
2022/06/25 14:04:14;;;;;;;;;;;30.70;92.00;;;;;;5017979;28;20335;-65
2022/06/25 14:06:42;;;;;;;;;;;30.10;92.80;;;;;;5020803;28;20458;-65
2022/06/25 14:09:11;;;;;;;;;;;30.20;93.20;;;;;;5020198;28;20256;-65
2022/06/25 14:11:39;;;;;;;;;;;30.20;92.10;;;;;;5021179;28;20814;-65
2022/06/25 14:14:08;;;;;;;;;;;30.70;91.50;;;;;;5022599;28;20286;-65
2022/06/25 14:16:36;;;;;;;;;;;31.00;91.90;;;;;;5030571;28;20595;-64
2022/06/25 14:19:04;;;;;;;;;;;31.50;91.10;;;;;;5021312;28;20882;-65
2022/06/25 14:21:32;;;;;;;;;;;31.80;90.90;;;;;;5024732;28;20281;-65
2022/06/25 14:23:59;;;;;;;;;;;31.90;91.00;;;;;;5024720;28;20274;-65
2022/06/25 14:26:27;;;;;;;;;;;32.10;91.60;;;;;;5030517;28;20210;-65
2022/06/25 14:28:55;;;;;;;;;;;32.20;90.80;;;;;;5022961;28;20294;-65
2022/06/25 14:31:25;;;;;;;;;;;32.50;90.40;;;;;;5023126;28;20211;-65
2022/06/25 14:33:53;;;;;;;;;;;32.40;90.30;;;;;;5026603;28;21008;-64
2022/06/25 14:44:42;;;;;;;;;;;33.00;89.20;;;;;;5024425;28;20210;-65
2022/06/25 14:47:12;;;;;;;;;;;32.80;88.60;;;;;;5024881;28;20198;-65
2022/06/25 14:49:40;;;;;;;;;;;32.90;88.40;;;;;;5020425;28;20231;-65
2022/06/25 14:52:07;;;;;;;;;;;32.90;87.40;;;;;;5025539;28;21026;-66
2022/06/25 14:54:35;;;;;;;;;;;32.90;89.00;;;;;;5029911;28;20281;-65